sensor_id;sensor_type;location;lat;lon;timestamp;temperature;humidity
3051;DHT22;1535;51.098;6.414;2024-02-14T00:02:26;9.00;99.90
3051;DHT22;1535;51.098;6.414;2024-02-14T00:04:53;8.90;99.90
3051;DHT22;1535;51.098;6.414;2024-02-14T00:07:20;8.90;99.90
3051;DHT22;1535;51.098;6.414;2024-02-14T00:09:47;8.90;99.90
3051;DHT22;1535;51.098;6.414;2024-02-14T00:12:16;8.90;99.90
3051;DHT22;1535;51.098;6.414;2024-02-14T00:14:43;9.00;99.90
3051;DHT22;1535;51.098;6.414;2024-02-14T00:17:09;9.00;99.90
3051;DHT22;1535;51.098;6.414;2024-02-14T00:19:38;9.00;99.90
3051;DHT22;1535;51.098;6.414;2024-02-14T00:22:05;9.00;99.90
3051;DHT22;1535;51.098;6.414;2024-02-14T00:24:32;9.00;99.90
3051;DHT22;1535;51.098;6.414;2024-02-14T00:27:01;9.10;99.90
3051;DHT22;1535;51.098;6.414;2024-02-14T00:29:30;9.10;99.90
3051;DHT22;1535;51.098;6.414;2024-02-14T00:31:59;9.20;99.90
3051;DHT22;1535;51.098;6.414;2024-02-14T00:34:26;9.20;99.90
3051;DHT22;1535;51.098;6.414;2024-02-14T00:36:53;9.20;99.90
3051;DHT22;1535;51.098;6.414;2024-02-14T00:39:20;9.20;99.90
3051;DHT22;1535;51.098;6.414;2024-02-14T00:41:47;9.30;99.90
3051;DHT22;1535;51.098;6.414;2024-02-14T00:44:15;9.30;99.90
3051;DHT22;1535;51.098;6.414;2024-02-14T00:46:43;9.30;99.90
3051;DHT22;1535;51.098;6.414;2024-02-14T00:49:11;9.40;99.90
3051;DHT22;1535;51.098;6.414;2024-02-14T00:51:40;9.40;99.90
3051;DHT22;1535;51.098;6.414;2024-02-14T00:54:07;9.40;99.90
3051;DHT22;1535;51.098;6.414;2024-02-14T00:56:34;9.50;99.90
3051;DHT22;1535;51.098;6.414;2024-02-14T00:59:01;9.50;99.90
3051;DHT22;1535;51.098;6.414;2024-02-14T01:01:28;9.50;99.90
3051;DHT22;1535;51.098;6.414;2024-02-14T01:03:57;9.50;99.90
3051;DHT22;1535;51.098;6.414;2024-02-14T01:06:24;9.50;99.90
3051;DHT22;1535;51.098;6.414;2024-02-14T01:08:50;9.40;99.90
3051;DHT22;1535;51.098;6.414;2024-02-14T01:11:19;9.40;99.90
3051;DHT22;1535;51.098;6.414;2024-02-14T01:13:45;9.50;99.90
3051;DHT22;1535;51.098;6.414;2024-02-14T01:16:12;9.40;99.90
3051;DHT22;1535;51.098;6.414;2024-02-14T01:18:40;9.50;99.90
3051;DHT22;1535;51.098;6.414;2024-02-14T01:21:08;9.50;99.90
3051;DHT22;1535;51.098;6.414;2024-02-14T01:23:35;9.60;99.90
3051;DHT22;1535;51.098;6.414;2024-02-14T01:26:02;9.60;99.90
3051;DHT22;1535;51.098;6.414;2024-02-14T01:28:29;9.60;99.90
3051;DHT22;1535;51.098;6.414;2024-02-14T01:30:56;9.60;99.90
3051;DHT22;1535;51.098;6.414;2024-02-14T01:33:23;9.60;99.90
3051;DHT22;1535;51.098;6.414;2024-02-14T01:35:50;9.60;99.90
3051;DHT22;1535;51.098;6.414;2024-02-14T01:38:20;9.70;99.90
3051;DHT22;1535;51.098;6.414;2024-02-14T01:40:48;9.60;99.90
3051;DHT22;1535;51.098;6.414;2024-02-14T01:43:15;9.60;99.90
3051;DHT22;1535;51.098;6.414;2024-02-14T01:45:58;9.60;99.90
3051;DHT22;1535;51.098;6.414;2024-02-14T01:48:30;9.60;99.90
3051;DHT22;1535;51.098;6.414;2024-02-14T01:50:57;9.70;99.90
3051;DHT22;1535;51.098;6.414;2024-02-14T01:53:26;9.70;99.90
3051;DHT22;1535;51.098;6.414;2024-02-14T01:55:56;9.80;99.90
3051;DHT22;1535;51.098;6.414;2024-02-14T01:58:23;9.80;99.90
3051;DHT22;1535;51.098;6.414;2024-02-14T02:00:51;9.80;99.90
3051;DHT22;1535;51.098;6.414;2024-02-14T02:03:22;9.80;99.90
3051;DHT22;1535;51.098;6.414;2024-02-14T02:05:49;9.80;99.90
3051;DHT22;1535;51.098;6.414;2024-02-14T02:08:17;9.80;99.90
3051;DHT22;1535;51.098;6.414;2024-02-14T02:10:45;9.90;99.90
3051;DHT22;1535;51.098;6.414;2024-02-14T02:13:12;9.90;99.90
3051;DHT22;1535;51.098;6.414;2024-02-14T02:15:41;9.90;99.90
3051;DHT22;1535;51.098;6.414;2024-02-14T02:18:10;9.90;99.90
3051;DHT22;1535;51.098;6.414;2024-02-14T02:20:37;9.90;99.90
3051;DHT22;1535;51.098;6.414;2024-02-14T02:23:06;9.90;99.90
3051;DHT22;1535;51.098;6.414;2024-02-14T02:25:35;9.90;99.90
3051;DHT22;1535;51.098;6.414;2024-02-14T02:28:02;9.90;99.90
3051;DHT22;1535;51.098;6.414;2024-02-14T02:30:29;9.90;99.90
3051;DHT22;1535;51.098;6.414;2024-02-14T02:32:56;10.00;99.90
3051;DHT22;1535;51.098;6.414;2024-02-14T02:35:24;10.00;99.90
3051;DHT22;1535;51.098;6.414;2024-02-14T02:37:51;10.00;99.90
3051;DHT22;1535;51.098;6.414;2024-02-14T02:40:20;10.00;99.90
3051;DHT22;1535;51.098;6.414;2024-02-14T02:42:49;10.00;99.90
3051;DHT22;1535;51.098;6.414;2024-02-14T02:45:16;10.10;99.90
3051;DHT22;1535;51.098;6.414;2024-02-14T02:47:43;10.10;99.90
3051;DHT22;1535;51.098;6.414;2024-02-14T02:50:12;10.00;99.90
3051;DHT22;1535;51.098;6.414;2024-02-14T02:52:39;10.10;99.90
3051;DHT22;1535;51.098;6.414;2024-02-14T02:55:07;10.00;99.90
3051;DHT22;1535;51.098;6.414;2024-02-14T02:57:36;9.90;99.90
3051;DHT22;1535;51.098;6.414;2024-02-14T03:00:03;9.80;99.90
3051;DHT22;1535;51.098;6.414;2024-02-14T03:02:31;9.80;99.90
3051;DHT22;1535;51.098;6.414;2024-02-14T03:04:58;9.60;99.90
3051;DHT22;1535;51.098;6.414;2024-02-14T03:07:25;9.50;99.90
3051;DHT22;1535;51.098;6.414;2024-02-14T03:09:52;9.50;99.90
3051;DHT22;1535;51.098;6.414;2024-02-14T03:12:19;9.50;99.90
3051;DHT22;1535;51.098;6.414;2024-02-14T03:14:47;9.50;99.90
3051;DHT22;1535;51.098;6.414;2024-02-14T03:17:15;9.50;99.90
3051;DHT22;1535;51.098;6.414;2024-02-14T03:19:42;9.60;99.90
3051;DHT22;1535;51.098;6.414;2024-02-14T03:22:09;9.50;99.90
3051;DHT22;1535;51.098;6.414;2024-02-14T03:24:36;9.50;99.90
3051;DHT22;1535;51.098;6.414;2024-02-14T03:27:04;9.50;99.90
3051;DHT22;1535;51.098;6.414;2024-02-14T03:29:31;9.60;99.90
